Del Mar, CA

4:32 AM PDT on October 25, 2014 (GMT -0700)
Del Mar Heights | Change Station
CLOSE
Current Station
Personal Weather Station
Location: Del Mar, CA
Elevation: 240 ft
Nearby Weather Stations
Active Advisory: Beach Hazard Statement

Elev 240 ft 32.95 °N, 117.25 °W | Updated 8 seconds ago

Mostly Cloudy
Mostly Cloudy
64.4 °F
Feels Like 64.4 °F
N
0.0
Wind Variable Wind from North
Gusts 0.0 mph

Today
High -- | Low -- °F
--% Chance of Precip.
Yesterday
High -- | Low -- °F
Precip. -- in
7:01 AM 6:04 PM
Waxing Crescent, 3% visible
Pressure 29.97 in
Visibility 6.0 miles
Clouds Scattered Clouds 9000 ft
Dew Point 63 °F
Humidity 96%
Rainfall 0.00 in
Snow Depth Not available.
UV 0 out of 12
Pollen 3.90 out of 12
Ozone Good
PM2.5 Moderate
Flu Activity Sporadic
METAR KNKX 251055Z 36005KT 6SM BR SCT090 19/17 A2999 RMK AO2 SLP147 T01890167

More Conditions Fewer Conditions

Pressure 29.97 in
Visibility 6.0 miles
Clouds Scattered Clouds 9000 ft
Dew Point 63 °F
Humidity 96%
Rainfall 0.00 in
Snow Depth Not available.
UV 0 out of 12
Pollen 3.90 out of 12
Ozone Good
PM2.5 Moderate
Flu Activity Sporadic
METAR KNKX 251055Z 36005KT 6SM BR SCT090 19/17 A2999 RMK AO2 SLP147 T01890167

More Conditions Fewer Conditions

10-Day Weather Forecast

Almanac

Astronomy

Oct. 25, 2014 Rise Set
Actual Time 7:01 AM PDT 6:04 PM PDT
Civil Twilight 6:35 AM PDT 6:29 PM PDT
Nautical Twilight 6:06 AM PDT 6:58 PM PDT
Astronomical Twilight 5:38 AM PDT 7:27 PM PDT
Moon 8:40 AM PDT 7:35 PM PDT
Length of Visible Light 11h 53m
Length of Day
11h 03m
Tomorrow will be 1m 51s shorter.
Waxing Crescent, 3% of the Moon is Illuminated
Today
Waxing Crescent
Oct 30
First Quarter
Nov 6
Full
Nov 14
Last Quarter
Nov 22
New

Today's Extremes

State Highs State Lows

Community

WunderPhotos

Upload Photos

1,764,810 photos uploaded!

Nearby

Air Quality

  Air Quality AQ Index Pollutant
Yesterday Moderate
OZONE
Yesterday Moderate
PM2.5
Current Moderate
PM2.5
Current Good
OZONE
Saturday Moderate
PM2.5
Saturday Good
OZONE
Sunday Good
PM2.5
Sunday Good
OZONE
Monday Good
PM2.5
Monday Good
OZONE

Snow Depth

Station Depth Elevation
Virginia Lakes Ridge 0 in 9200 ft
Leavitt Lake 1 in 9400 ft
Leavitt Meadows 1 in 7200 ft
Sonora Pass 0 in 8800 ft
Summit Meadow 1 in 9122 ft

Earthquake Activity

City Distance Mag. Time & Date
Running Springs, California 91 miles 3.1 4:07 AM PDT
2014-10-25
Maneadero, Mexico 122 miles 2.5 7:44 AM PDT
2014-10-24
San Felipe, Mexico 144 miles 3.0 11:00 PM PDT
2014-10-23
Brea, California 77 miles 2.9 3:35 PM PDT
2014-10-23
Minimum magnitude displayed is 2.5.

Coastal Water Temperatures

Place Temperature
La Jolla, CA 71.1 °F
San Diego, CA 73.9 °F

Nearby Weather Stations